Time;durP1;ratioP1;P1;durP2;ratioP2;P2;SDS_P1;SDS_P2;PMS_P1;PMS_P2;Temp;Humidity;BMP_temperature;BMP_pressure;BME280_temperature;BME280_humidity;BME280_pressure;Samples;Min_cycle;Max_cycle;Signal;HPM_P1;HPM_P2
2022/07/05 00:00:05;;;;;;;15.18;10.52;;;21.50;99.90;;;;;;5114532;28;20070;-54
2022/07/05 00:02:39;;;;;;;14.60;10.82;;;21.50;99.90;;;;;;5114192;28;20031;-54
2022/07/05 00:05:05;;;;;;;11.40;9.23;;;21.50;99.90;;;;;;5116960;28;20023;-54
2022/07/05 00:07:31;;;;;;;12.00;10.35;;;21.40;99.90;;;;;;5118355;28;20119;-54
2022/07/05 00:09:58;;;;;;;14.00;10.32;;;21.40;99.90;;;;;;5118423;28;20035;-54
2022/07/05 00:12:31;;;;;;;14.10;9.82;;;21.50;99.90;;;;;;5118327;28;20457;-54
2022/07/05 00:14:58;;;;;;;13.77;10.95;;;21.50;99.90;;;;;;5118169;28;20389;-54
2022/07/05 00:17:24;;;;;;;13.82;9.73;;;21.40;99.90;;;;;;5118337;28;20481;-54
2022/07/05 00:19:50;;;;;;;12.15;9.13;;;21.30;99.90;;;;;;5118169;28;20457;-54
2022/07/05 00:22:16;;;;;;;11.10;8.93;;;21.30;99.90;;;;;;5117947;28;20039;-54
2022/07/05 00:24:42;;;;;;;12.60;8.73;;;21.30;99.90;;;;;;5118013;28;20024;-54
2022/07/05 00:27:08;;;;;;;11.77;8.68;;;21.30;99.90;;;;;;5118119;28;20038;-54
2022/07/05 00:29:34;;;;;;;10.95;8.68;;;21.30;99.90;;;;;;5116809;28;20408;-54
2022/07/05 00:32:00;;;;;;;10.77;8.02;;;21.30;99.90;;;;;;5116692;28;20023;-54
2022/07/05 00:34:26;;;;;;;11.25;8.63;;;21.20;99.90;;;;;;5116484;28;20075;-54
2022/07/05 00:36:52;;;;;;;10.60;8.80;;;21.20;99.90;;;;;;5116835;28;20042;-54
2022/07/05 00:39:18;;;;;;;10.00;8.52;;;21.20;99.90;;;;;;5117650;28;20032;-54
2022/07/05 00:41:44;;;;;;;13.43;8.50;;;21.20;99.90;;;;;;5117883;28;20027;-54
2022/07/05 00:44:11;;;;;;;11.48;8.32;;;21.20;99.90;;;;;;5116613;28;20057;-54
2022/07/05 00:46:38;;;;;;;12.15;7.88;;;21.20;99.90;;;;;;5117674;28;20027;-54
2022/07/05 00:49:05;;;;;;;13.73;9.35;;;21.20;99.90;;;;;;5117731;28;20019;-54
2022/07/05 00:51:33;;;;;;;12.55;8.80;;;21.10;99.90;;;;;;5117696;28;20028;-54
2022/07/05 00:54:00;;;;;;;10.50;8.18;;;21.00;99.90;;;;;;5116161;28;20100;-54
2022/07/05 00:56:26;;;;;;;12.90;8.88;;;21.00;99.90;;;;;;5117533;28;20035;-54
2022/07/05 00:58:52;;;;;;;13.15;8.45;;;21.00;99.90;;;;;;5116243;28;20118;-54
2022/07/05 01:01:18;;;;;;;11.02;7.97;;;21.00;99.90;;;;;;5117454;28;20119;-54
2022/07/05 01:03:44;;;;;;;12.85;8.57;;;20.90;99.90;;;;;;5117350;28;20089;-54
2022/07/05 01:06:12;;;;;;;14.35;9.05;;;20.90;99.90;;;;;;5117391;28;20361;-54
2022/07/05 01:08:41;;;;;;;14.07;8.02;;;20.90;99.90;;;;;;5117437;28;20019;-54
2022/07/05 01:11:08;;;;;;;12.77;8.77;;;20.90;99.90;;;;;;5115975;28;20464;-54
2022/07/05 01:13:35;;;;;;;11.43;8.68;;;20.90;99.90;;;;;;5116069;28;20024;-54
2022/07/05 01:16:01;;;;;;;12.85;8.65;;;20.80;99.90;;;;;;5116345;28;20077;-54
2022/07/05 01:18:28;;;;;;;12.80;8.95;;;20.80;99.90;;;;;;5117204;28;20028;-54
2022/07/05 01:20:55;;;;;;;13.25;8.80;;;20.90;99.90;;;;;;5117041;28;20023;-54
2022/07/05 01:23:22;;;;;;;13.70;8.15;;;20.80;99.90;;;;;;5115855;28;20028;-54
2022/07/05 01:25:49;;;;;;;12.02;8.07;;;20.80;99.90;;;;;;5117208;28;20133;-54
2022/07/05 01:28:15;;;;;;;11.88;8.57;;;20.80;99.90;;;;;;5116967;28;20035;-54
2022/07/05 01:30:42;;;;;;;14.27;8.38;;;20.80;99.90;;;;;;5117221;28;20068;-54
2022/07/05 01:33:09;;;;;;;14.88;8.63;;;20.80;99.90;;;;;;5116883;28;20057;-54
2022/07/05 01:35:35;;;;;;;12.15;8.13;;;20.70;99.90;;;;;;5116604;28;20107;-54
2022/07/05 01:38:01;;;;;;;11.05;8.80;;;20.70;99.90;;;;;;5115515;28;20078;-54
2022/07/05 01:40:28;;;;;;;10.80;8.05;;;20.70;99.90;;;;;;5115539;28;20032;-54
2022/07/05 01:42:54;;;;;;;12.88;8.20;;;20.70;99.90;;;;;;5116764;28;20051;-54
2022/07/05 01:48:11;;;;;;;10.70;8.27;;;20.60;99.90;;;;;;5115061;28;20031;-54
2022/07/05 01:51:03;;;;;;;12.75;8.25;;;20.60;99.90;;;;;;5116575;28;20039;-54
2022/07/05 01:53:30;;;;;;;10.32;8.13;;;20.50;99.90;;;;;;5109450;28;20043;-54
2022/07/05 01:56:01;;;;;;;13.73;8.57;;;20.60;99.90;;;;;;5115079;28;20038;-54
2022/07/05 01:58:28;;;;;;;;;;;20.60;99.90;;;;;;5115331;28;20023;-54
2022/07/05 02:00:56;;;;;;;14.05;8.85;;;20.50;99.90;;;;;;5115101;28;20028;-54
2022/07/05 02:03:24;;;;;;;12.60;8.95;;;20.50;99.90;;;;;;5116142;28;20496;-54
2022/07/05 02:05:50;;;;;;;12.68;9.32;;;20.50;99.90;;;;;;5116283;28;20035;-54
2022/07/05 02:08:20;;;;;;;15.48;9.48;;;20.40;99.90;;;;;;5116066;28;20051;-54
2022/07/05 02:10:46;;;;;;;16.65;9.43;;;20.40;99.90;;;;;;5114659;28;20038;-54
2022/07/05 02:13:12;;;;;;;12.40;9.23;;;20.40;99.90;;;;;;5116129;28;20039;-54
2022/07/05 02:15:41;;;;;;;12.77;9.13;;;20.40;99.90;;;;;;5114635;28;20088;-54
2022/07/05 02:18:09;;;;;;;13.13;9.18;;;20.40;99.90;;;;;;5114791;28;20024;-54
2022/07/05 02:20:39;;;;;;;11.27;9.27;;;20.40;99.90;;;;;;5114813;28;20292;-54
2022/07/05 02:23:06;;;;;;;11.80;8.90;;;20.40;99.90;;;;;;5114452;28;20130;-54
2022/07/05 02:25:33;;;;;;;14.43;8.98;;;20.30;99.90;;;;;;5114530;28;20035;-54
2022/07/05 02:28:03;;;;;;;15.07;10.35;;;20.40;99.90;;;;;;5114369;28;20172;-54
2022/07/05 02:30:31;;;;;;;12.40;9.75;;;20.40;99.90;;;;;;5114513;28;20078;-54
2022/07/05 02:32:57;;;;;;;13.35;9.80;;;20.40;99.90;;;;;;5114363;28;20036;-54
2022/07/05 02:35:23;;;;;;;13.35;9.85;;;20.40;99.90;;;;;;5114282;28;20626;-54
2022/07/05 02:37:49;;;;;;;14.10;10.60;;;20.40;99.90;;;;;;5115674;28;20483;-54
2022/07/05 02:40:15;;;;;;;17.30;11.00;;;20.40;99.90;;;;;;5114340;28;20028;-54
2022/07/05 02:42:46;;;;;;;12.73;10.48;;;20.50;99.90;;;;;;5114161;28;20034;-54
2022/07/05 02:45:14;;;;;;;15.60;10.38;;;20.50;99.90;;;;;;5114279;28;20531;-54
2022/07/05 02:47:42;;;;;;;14.82;10.40;;;20.30;99.90;;;;;;5114087;28;20047;-54
2022/07/05 02:50:09;;;;;;;18.90;10.68;;;20.20;99.90;;;;;;5114252;28;20104;-54
2022/07/05 02:52:40;;;;;;;14.18;10.80;;;20.20;99.90;;;;;;5114011;28;20254;-54
2022/07/05 02:55:07;;;;;;;14.88;11.30;;;20.10;99.90;;;;;;5113894;28;20034;-54
2022/07/05 02:57:36;;;;;;;14.48;10.18;;;20.10;99.90;;;;;;5114017;28;20118;-54
2022/07/05 03:00:05;;;;;;;13.43;10.48;;;20.00;99.90;;;;;;5113877;28;20089;-54
2022/07/05 03:02:38;;;;;;;14.05;10.18;;;20.00;99.90;;;;;;5113996;28;20043;-54
2022/07/05 03:05:06;;;;;;;14.35;10.02;;;20.00;99.90;;;;;;5113975;28;20067;-54
2022/07/05 03:07:33;;;;;;;13.68;9.85;;;19.90;99.90;;;;;;5113939;28;20576;-54
2022/07/05 03:10:00;;;;;;;12.02;10.70;;;19.90;99.90;;;;;;5113940;28;20384;-54
2022/07/05 03:12:28;;;;;;;13.23;9.30;;;19.80;99.90;;;;;;5113640;28;20503;-54
2022/07/05 03:14:55;;;;;;;13.18;9.88;;;19.80;99.90;;;;;;5097123;28;20449;-54
2022/07/05 03:17:23;;;;;;;14.90;10.38;;;19.80;99.90;;;;;;5113967;28;20506;-54
2022/07/05 03:19:49;;;;;;;12.75;10.75;;;19.80;99.90;;;;;;5113914;28;20464;-54
2022/07/05 03:22:18;;;;;;;12.73;11.15;;;19.70;99.90;;;;;;5113619;28;20031;-54
2022/07/05 03:24:44;;;;;;;11.40;9.38;;;19.70;99.90;;;;;;5113656;28;20362;-54
2022/07/05 03:27:11;;;;;;;16.52;10.13;;;19.80;99.90;;;;;;5113654;28;20576;-54
2022/07/05 03:29:39;;;;;;;13.30;10.75;;;19.80;99.90;;;;;;5113836;28;20031;-54
2022/07/05 03:32:05;;;;;;;16.70;10.20;;;19.80;99.90;;;;;;5113514;28;20034;-54
2022/07/05 03:34:31;;;;;;;16.67;10.38;;;19.80;99.90;;;;;;5114652;28;20030;-54
2022/07/05 03:37:00;;;;;;;13.75;10.40;;;19.90;99.90;;;;;;5113532;28;20031;-54
2022/07/05 03:39:26;;;;;;;12.48;10.77;;;19.80;99.90;;;;;;5116537;28;20465;-54
2022/07/05 03:41:52;;;;;;;17.05;11.23;;;19.90;99.90;;;;;;5117774;28;20051;-54
2022/07/05 03:44:21;;;;;;;16.95;11.18;;;20.00;99.90;;;;;;5117744;28;20020;-54
2022/07/05 03:46:47;;;;;;;19.17;10.85;;;20.00;99.90;;;;;;5117406;28;20028;-54
2022/07/05 03:49:14;;;;;;;15.48;10.90;;;20.10;99.90;;;;;;5117622;28;20042;-54
2022/07/05 03:51:40;;;;;;;13.43;11.45;;;20.00;99.90;;;;;;5117771;28;20061;-54
2022/07/05 03:54:06;;;;;;;15.18;10.98;;;20.10;99.90;;;;;;5117453;28;20035;-54
2022/07/05 03:56:32;;;;;;;16.27;10.50;;;20.10;99.90;;;;;;5117480;28;20031;-54
2022/07/05 03:59:03;;;;;;;20.50;11.10;;;20.20;99.90;;;;;;5117225;28;20591;-54
2022/07/05 04:01:31;;;;;;;15.60;10.77;;;20.20;99.90;;;;;;5116972;28;20485;-54
2022/07/05 04:03:57;;;;;;;20.75;11.55;;;20.20;99.90;;;;;;5117229;28;20460;-54
2022/07/05 04:06:26;;;;;;;18.77;11.75;;;20.20;99.90;;;;;;5117318;28;20396;-54
2022/07/05 04:08:53;;;;;;;18.38;12.02;;;20.20;99.90;;;;;;5117180;28;20036;-54
2022/07/05 04:11:19;;;;;;;19.38;11.73;;;20.30;99.90;;;;;;5117106;28;20028;-54
2022/07/05 04:13:49;;;;;;;16.67;12.45;;;20.40;99.90;;;;;;5100334;28;20024;-54
2022/07/05 04:16:15;;;;;;;17.35;11.43;;;20.40;99.90;;;;;;5116957;28;20054;-54
2022/07/05 04:18:41;;;;;;;13.63;10.88;;;20.50;99.90;;;;;;5118362;28;20016;-54
2022/07/05 04:21:08;;;;;;;15.45;11.30;;;20.50;99.90;;;;;;5116913;28;20028;-54
2022/07/05 04:23:34;;;;;;;15.93;12.02;;;20.60;99.90;;;;;;5116720;28;20028;-54
2022/07/05 04:26:02;;;;;;;18.60;11.95;;;20.70;99.90;;;;;;5117018;28;20118;-54
2022/07/05 04:28:37;;;;;;;17.33;11.60;;;20.80;99.90;;;;;;5116770;28;20118;-54
2022/07/05 04:31:07;;;;;;;16.08;12.27;;;20.90;99.90;;;;;;5116832;28;20035;-54
2022/07/05 04:33:38;;;;;;;15.95;11.35;;;20.90;99.90;;;;;;5116835;28;20028;-54
2022/07/05 04:36:04;;;;;;;14.05;11.00;;;21.00;99.90;;;;;;5116420;28;20035;-54
2022/07/05 04:38:31;;;;;;;21.70;12.00;;;21.10;99.90;;;;;;5116625;28;20098;-54
2022/07/05 04:40:59;;;;;;;17.80;11.30;;;21.10;99.90;;;;;;5117840;28;20099;-54
2022/07/05 04:43:26;;;;;;;20.33;12.02;;;21.30;99.90;;;;;;5116664;28;20251;-54
2022/07/05 04:45:53;;;;;;;28.50;14.10;;;21.40;99.90;;;;;;5116367;28;20035;-54
2022/07/05 04:48:19;;;;;;;22.40;13.50;;;21.50;99.90;;;;;;5116540;28;20381;-54
2022/07/05 04:50:44;;;;;;;19.52;13.48;;;21.60;99.90;;;;;;5115122;28;20035;-54
2022/07/05 04:53:10;;;;;;;17.05;12.13;;;21.70;99.90;;;;;;5117767;28;20088;-54
2022/07/05 04:55:37;;;;;;;16.92;12.00;;;21.80;99.90;;;;;;5117397;28;20027;-54
2022/07/05 04:58:02;;;;;;;18.05;12.65;;;21.90;99.90;;;;;;5117599;28;20369;-54
2022/07/05 05:00:28;;;;;;;13.38;11.98;;;21.90;99.90;;;;;;5117454;28;20027;-54
2022/07/05 05:02:54;;;;;;;16.58;11.93;;;22.00;99.90;;;;;;5117271;28;20040;-54
2022/07/05 05:05:20;;;;;;;18.05;12.25;;;22.10;99.90;;;;;;5117602;28;20051;-54
2022/07/05 05:07:46;;;;;;;20.15;13.38;;;22.10;99.90;;;;;;5117047;28;20508;-54
2022/07/05 05:10:12;;;;;;;21.75;14.68;;;22.20;99.90;;;;;;5117278;28;20027;-54
2022/07/05 05:12:38;;;;;;;22.73;13.57;;;22.30;99.90;;;;;;5117185;28;20025;-54
2022/07/05 05:15:08;;;;;;;20.75;13.90;;;22.50;99.90;;;;;;5116982;28;20027;-54
2022/07/05 05:17:42;;;;;;;21.70;14.18;;;22.70;99.90;;;;;;5117066;28;20066;-54
2022/07/05 05:20:16;;;;;;;20.20;13.40;;;22.90;99.90;;;;;;5117206;28;20027;-54
2022/07/05 05:22:43;;;;;;;22.40;14.90;;;23.00;99.90;;;;;;5116919;28;20031;-54
2022/07/05 05:25:10;;;;;;;19.08;13.18;;;23.10;99.90;;;;;;5116995;28;20053;-54
2022/07/05 05:27:50;;;;;;;22.88;15.55;;;23.30;99.90;;;;;;5113483;28;20358;-54
2022/07/05 05:30:19;;;;;;;27.42;15.25;;;23.40;99.90;;;;;;5116413;28;20557;-54
2022/07/05 05:32:45;;;;;;;29.27;14.35;;;23.50;99.90;;;;;;5117335;28;20081;-54
2022/07/05 05:35:11;;;;;;;24.23;16.08;;;23.70;99.90;;;;;;5115728;28;20031;-54
2022/07/05 05:37:55;;;;;;;32.85;18.40;;;23.80;99.90;;;;;;5116488;28;20385;-54
2022/07/05 05:40:22;;;;;;;25.50;17.70;;;23.90;99.90;;;;;;5116573;28;20024;-54
2022/07/05 05:42:48;;;;;;;25.48;17.35;;;24.00;99.90;;;;;;5116368;28;20469;-54
2022/07/05 05:45:15;;;;;;;25.98;17.80;;;24.10;99.90;;;;;;5115217;27;20019;-54
2022/07/05 05:47:52;;;;;;;28.33;16.83;;;24.20;99.90;;;;;;5113051;28;20043;-54
2022/07/05 05:50:32;;;;;;;29.85;18.40;;;24.40;99.90;;;;;;5110269;28;20182;-54
2022/07/05 05:52:59;;;;;;;35.40;19.50;;;24.50;99.90;;;;;;5116370;28;20470;-54
2022/07/05 05:55:27;;;;;;;43.83;20.00;;;24.60;99.90;;;;;;5116138;28;20031;-54
2022/07/05 05:57:53;;;;;;;29.05;19.92;;;24.70;99.90;;;;;;5115998;27;20567;-54
2022/07/05 06:00:21;;;;;;;29.00;18.10;;;24.90;99.90;;;;;;5114890;28;20095;-54
2022/07/05 06:02:49;;;;;;;30.70;19.40;;;25.20;99.90;;;;;;5115632;28;20050;-54
2022/07/05 06:05:15;;;;;;;37.95;20.70;;;25.20;99.90;;;;;;5116146;28;20515;-54
2022/07/05 06:07:50;;;;;;;33.42;22.40;;;25.20;99.90;;;;;;5115996;28;20046;-54
2022/07/05 06:10:23;;;;;;;41.75;23.27;;;25.20;99.90;;;;;;5115888;28;20340;-54
2022/07/05 06:12:54;;;;;;;39.65;25.10;;;25.30;99.90;;;;;;5115845;28;20047;-54
2022/07/05 06:15:20;;;;;;;45.30;26.45;;;25.20;99.90;;;;;;5115880;28;20036;-54
2022/07/05 06:17:47;;;;;;;42.88;25.50;;;25.30;99.90;;;;;;5115889;28;20032;-54
2022/07/05 06:20:16;;;;;;;35.83;24.15;;;25.40;99.90;;;;;;5115702;28;20036;-54
2022/07/05 06:22:42;;;;;;;46.67;27.25;;;25.40;99.90;;;;;;5115810;28;20050;-54
2022/07/05 06:25:09;;;;;;;67.28;28.88;;;25.50;99.90;;;;;;5115421;28;20040;-54
2022/07/05 06:28:00;;;;;;;43.33;25.73;;;25.40;99.90;;;;;;5115597;28;20384;-54
2022/07/05 06:30:30;;;;;;;47.05;27.92;;;25.50;99.90;;;;;;5107530;28;20039;-54
2022/07/05 06:32:57;;;;;;;50.85;28.67;;;25.50;99.90;;;;;;5115680;28;20437;-54
2022/07/05 06:35:24;;;;;;;53.85;31.20;;;25.50;99.90;;;;;;5115245;28;20110;-54
2022/07/05 06:37:54;;;;;;;56.53;31.80;;;25.50;99.90;;;;;;5115296;28;20053;-54
2022/07/05 06:40:26;;;;;;;56.53;30.40;;;25.40;99.90;;;;;;5115548;28;20111;-54
2022/07/05 06:42:56;;;;;;;49.00;29.95;;;25.20;99.90;;;;;;5115152;28;20103;-54
2022/07/05 06:45:29;;;;;;;68.22;33.38;;;25.40;99.90;;;;;;5114090;28;20035;-54
2022/07/05 06:48:00;;;;;;;52.53;31.10;;;25.50;99.90;;;;;;5115277;28;20409;-54
2022/07/05 06:50:31;;;;;;;57.38;30.00;;;25.60;99.90;;;;;;5115376;28;20027;-54
2022/07/05 06:53:00;;;;;;;54.92;28.63;;;25.70;99.90;;;;;;5112015;28;20024;-54
2022/07/05 06:55:27;;;;;;;42.45;22.05;;;25.60;99.90;;;;;;5105518;28;20032;-54
2022/07/05 06:58:03;;;;;;;38.92;23.55;;;25.60;99.90;;;;;;5113167;28;20106;-54
2022/07/05 07:00:29;;;;;;;34.17;21.15;;;25.30;99.90;;;;;;5094607;28;20024;-54
2022/07/05 07:02:55;;;;;;;52.28;28.50;;;25.40;99.90;;;;;;5094721;28;20043;-54
2022/07/05 07:05:22;;;;;;;62.50;35.60;;;25.60;99.90;;;;;;5096479;28;20043;-54
2022/07/05 07:10:32;;;;;;;59.95;36.90;;;25.70;99.90;;;;;;5108396;28;20469;-54
2022/07/05 07:12:59;;;;;;;56.15;36.13;;;25.70;99.90;;;;;;5106932;28;20035;-54
2022/07/05 07:15:25;;;;;;;61.53;34.00;;;25.80;99.90;;;;;;5100798;28;20031;-54
2022/07/05 07:17:51;;;;;;;62.78;36.65;;;26.20;99.90;;;;;;5095063;28;20031;-54
2022/07/05 07:20:17;;;;;;;59.00;35.35;;;26.60;99.90;;;;;;5094776;28;20461;-54
2022/07/05 07:22:43;;;;;;;57.88;35.33;;;27.10;99.90;;;;;;5093688;28;20028;-54
2022/07/05 07:25:11;;;;;;;55.47;33.78;;;27.40;99.20;;;;;;5095100;28;20039;-54
2022/07/05 07:27:49;;;;;;;55.08;32.03;;;27.40;95.20;;;;;;5094670;28;20040;-54
2022/07/05 07:30:17;;;;;;;50.17;33.25;;;27.60;94.70;;;;;;5094939;28;20032;-54
2022/07/05 07:32:45;;;;;;;47.97;29.73;;;28.10;93.50;;;;;;5094977;28;20036;-55
2022/07/05 07:35:11;;;;;;;50.42;29.70;;;28.50;88.90;;;;;;5094489;28;20044;-55
2022/07/05 07:37:37;;;;;;;46.22;30.73;;;28.80;86.10;;;;;;5094908;28;20362;-54
2022/07/05 07:40:04;;;;;;;53.65;30.95;;;28.70;86.90;;;;;;5114343;28;20047;-55
2022/07/05 07:42:30;;;;;;;58.78;30.27;;;29.30;81.80;;;;;;5115235;28;20517;-55
2022/07/05 07:44:56;;;;;;;43.75;26.98;;;29.70;80.80;;;;;;5114582;28;20055;-55
2022/07/05 07:47:22;;;;;;;46.08;27.60;;;29.80;77.10;;;;;;5110945;28;20116;-55
2022/07/05 07:49:49;;;;;;;39.42;26.30;;;30.10;77.90;;;;;;5102577;28;20093;-55
2022/07/05 07:52:18;;;;;;;44.22;25.50;;;30.50;74.00;;;;;;5104271;28;20521;-55
2022/07/05 07:54:44;;;;;;;47.13;25.20;;;30.70;73.90;;;;;;5096031;28;20031;-55
2022/07/05 07:57:09;;;;;;;35.78;23.88;;;30.90;70.40;;;;;;5098873;28;20031;-55
2022/07/05 07:59:35;;;;;;;35.58;23.42;;;30.90;70.00;;;;;;5092901;28;20155;-55
2022/07/05 08:02:01;;;;;;;37.63;22.65;;;31.10;66.70;;;;;;5109874;28;20039;-55
2022/07/05 08:04:27;;;;;;;36.72;21.63;;;31.30;68.80;;;;;;5100711;28;20043;-55
2022/07/05 08:06:53;;;;;;;38.42;20.23;;;31.60;67.60;;;;;;5113819;28;20080;-55
2022/07/05 08:09:19;;;;;;;32.80;18.30;;;31.80;65.00;;;;;;5107064;28;20025;-55
2022/07/05 08:11:46;;;;;;;25.52;13.80;;;31.90;65.30;;;;;;5112561;28;20046;-55
2022/07/05 08:14:14;;;;;;;25.48;11.88;;;32.00;60.90;;;;;;5111849;28;20094;-55
2022/07/05 08:16:39;;;;;;;22.30;10.88;;;31.70;62.40;;;;;;5098415;28;20027;-55
2022/07/05 08:21:50;;;;;;;19.38;7.47;;;31.30;60.30;;;;;;5106145;28;20026;-55
2022/07/05 08:24:16;;;;;;;20.02;7.45;;;31.40;62.00;;;;;;5113800;28;20271;-55
2022/07/05 08:26:42;;;;;;;20.77;8.07;;;31.70;59.00;;;;;;5117032;28;20027;-55
2022/07/05 08:29:15;;;;;;;22.15;7.35;;;31.90;59.00;;;;;;5117435;27;20024;-55
2022/07/05 08:31:43;;;;;;;19.52;8.02;;;31.90;58.30;;;;;;5105312;28;20029;-55
2022/07/05 08:34:13;;;;;;;14.02;6.72;;;32.30;55.60;;;;;;5103843;27;20032;-55
2022/07/05 08:36:41;;;;;;;21.67;9.35;;;32.50;56.60;;;;;;5107998;28;20376;-55
2022/07/05 08:39:08;;;;;;;15.40;7.18;;;32.20;55.20;;;;;;5102307;27;20031;-55
2022/07/05 08:41:37;;;;;;;11.57;6.97;;;31.70;54.00;;;;;;5107735;28;20038;-55
2022/07/05 08:44:04;;;;;;;13.60;6.63;;;32.40;55.10;;;;;;5103469;28;20515;-55
2022/07/05 08:46:36;;;;;;;15.32;8.38;;;32.90;53.30;;;;;;5106276;27;20023;-55
2022/07/05 08:49:04;;;;;;;15.18;7.00;;;32.90;52.70;;;;;;5106781;27;20036;-55
2022/07/05 08:51:36;;;;;;;13.82;6.97;;;32.80;52.10;;;;;;5107704;27;20034;-55
2022/07/05 08:54:03;;;;;;;18.20;9.15;;;32.60;54.00;;;;;;5100856;28;20112;-55
2022/07/05 08:56:29;;;;;;;27.60;9.00;;;32.90;53.10;;;;;;5108550;28;20051;-55
2022/07/05 08:58:56;;;;;;;16.83;8.13;;;33.40;52.90;;;;;;5117826;28;20027;-55
2022/07/05 09:01:24;;;;;;;18.38;8.38;;;33.30;51.70;;;;;;5115008;28;20023;-55
2022/07/05 09:03:52;;;;;;;21.92;9.32;;;33.20;51.30;;;;;;5105691;28;20044;-55
2022/07/05 09:06:24;;;;;;;15.77;9.10;;;33.00;51.40;;;;;;5097551;28;20038;-55
2022/07/05 09:08:55;;;;;;;17.30;9.27;;;33.00;51.90;;;;;;5099063;28;20034;-55
2022/07/05 09:11:48;;;;;;;19.15;9.27;;;32.50;52.00;;;;;;5107331;28;20032;-55
2022/07/05 09:14:26;;;;;;;18.20;10.45;;;32.90;53.00;;;;;;5100220;28;20036;-55
2022/07/05 09:16:53;;;;;;;13.40;8.85;;;33.20;52.60;;;;;;5110874;28;20088;-55
2022/07/05 09:19:19;;;;;;;13.60;9.55;;;33.70;52.50;;;;;;5101781;28;20028;-55
2022/07/05 09:21:45;;;;;;;12.93;9.40;;;34.10;51.30;;;;;;5096365;28;20369;-55
2022/07/05 09:24:13;;;;;;;14.13;8.50;;;34.10;50.00;;;;;;5098932;28;20055;-55
2022/07/05 09:26:44;;;;;;;16.30;7.85;;;34.20;50.50;;;;;;5110461;28;20031;-55
2022/07/05 09:29:15;;;;;;;10.90;8.40;;;34.20;50.40;;;;;;5105866;28;20024;-54
2022/07/05 09:31:44;;;;;;;20.42;10.00;;;34.60;50.60;;;;;;5113691;28;20178;-55
2022/07/05 09:34:13;;;;;;;12.75;8.75;;;34.40;50.20;;;;;;5116916;28;20028;-55
2022/07/05 09:36:57;;;;;;;16.33;9.93;;;34.20;50.80;;;;;;5100119;28;20024;-55
2022/07/05 09:39:29;;;;;;;15.40;9.07;;;33.70;49.70;;;;;;5115286;28;20486;-55
2022/07/05 09:42:20;;;;;;;15.45;10.90;;;33.50;51.60;;;;;;5115730;28;20080;-55
2022/07/05 09:44:52;;;;;;;15.25;9.50;;;34.00;51.50;;;;;;5115522;28;20032;-55
2022/07/05 09:47:30;;;;;;;14.23;8.98;;;34.50;49.80;;;;;;5097171;28;20115;-55
2022/07/05 09:50:04;;;;;;;17.45;8.63;;;34.50;49.70;;;;;;5095778;28;20126;-55
2022/07/05 09:52:36;;;;;;;14.20;9.27;;;34.60;49.10;;;;;;5096060;28;20057;-55
2022/07/05 09:55:16;;;;;;;15.57;10.82;;;34.70;49.80;;;;;;5095889;28;20085;-55
2022/07/05 09:57:43;;;;;;;17.88;10.68;;;34.70;49.90;;;;;;5095348;28;20079;-55
2022/07/05 10:00:16;;;;;;;25.38;10.15;;;35.00;49.40;;;;;;5095721;28;20422;-55
2022/07/05 10:02:50;;;;;;;11.27;8.85;;;35.00;48.70;;;;;;5095722;28;20123;-55
2022/07/05 10:05:25;;;;;;;15.68;9.38;;;34.60;50.60;;;;;;5095614;28;20035;-55
2022/07/05 10:07:56;;;;;;;16.75;10.80;;;35.10;49.20;;;;;;5095840;28;20489;-55
2022/07/05 10:10:23;;;;;;;14.65;10.38;;;35.40;48.20;;;;;;5096020;28;20036;-55
2022/07/05 10:12:51;;;;;;;18.42;11.50;;;35.70;46.40;;;;;;5096194;28;20539;-55
2022/07/05 10:15:21;;;;;;;18.80;11.38;;;34.70;48.20;;;;;;5115899;28;20046;-55
2022/07/05 10:17:54;;;;;;;16.93;11.33;;;35.00;48.70;;;;;;5115644;28;20035;-55
2022/07/05 10:20:44;;;;;;;18.40;10.77;;;34.70;48.20;;;;;;5115741;28;20294;-55
2022/07/05 10:23:14;;;;;;;;;;;33.60;49.60;;;;;;5116114;28;20411;-55
2022/07/05 10:25:43;;;;;;;20.48;12.95;;;33.30;50.90;;;;;;5115692;28;19907;-55
2022/07/05 10:28:09;;;;;;;23.35;13.63;;;33.50;51.30;;;;;;5115695;28;20469;-55
2022/07/05 10:30:38;;;;;;;13.15;10.90;;;33.60;52.30;;;;;;5115307;28;20698;-55
2022/07/05 10:33:07;;;;;;;18.48;13.95;;;34.30;53.40;;;;;;5115278;28;20045;-55
2022/07/05 10:35:33;;;;;;;23.70;15.30;;;34.50;50.60;;;;;;5115431;28;20113;-55
2022/07/05 10:38:00;;;;;;;18.95;14.02;;;35.00;50.10;;;;;;5115665;28;20027;-55
2022/07/05 10:40:28;;;;;;;19.75;13.73;;;35.20;48.20;;;;;;5114645;28;20023;-55
2022/07/05 10:43:00;;;;;;;33.78;14.18;;;34.80;49.50;;;;;;5115762;28;20023;-55
2022/07/05 10:45:32;;;;;;;19.63;13.40;;;35.10;49.40;;;;;;5114183;28;20028;-55
2022/07/05 10:48:17;;;;;;;18.60;12.32;;;35.40;48.50;;;;;;5114685;28;20027;-55
2022/07/05 10:51:08;;;;;;;19.65;11.02;;;35.80;49.60;;;;;;5108161;28;20035;-55
2022/07/05 10:53:37;;;;;;;22.30;11.57;;;35.60;47.90;;;;;;5101267;28;20481;-55
2022/07/05 10:56:03;;;;;;;13.40;10.18;;;35.70;48.30;;;;;;5094801;28;20055;-55
2022/07/05 10:58:29;;;;;;;16.20;11.15;;;35.90;47.80;;;;;;5094735;28;20050;-55
2022/07/05 11:01:21;;;;;;;13.38;9.25;;;36.00;48.40;;;;;;5094698;28;20088;-55
2022/07/05 11:03:47;;;;;;;14.30;9.70;;;35.90;47.60;;;;;;5094645;28;20060;-55
2022/07/05 11:06:23;;;;;;;12.60;8.85;;;35.70;48.00;;;;;;5094671;28;20036;-55
2022/07/05 11:09:02;;;;;;;29.23;9.52;;;36.30;47.00;;;;;;5094473;28;20032;-55
2022/07/05 11:11:33;;;;;;;17.77;9.80;;;36.50;45.30;;;;;;5094655;28;20109;-55
2022/07/05 11:14:03;;;;;;;12.73;9.82;;;36.30;46.20;;;;;;5106718;28;20076;-55
2022/07/05 11:16:30;;;;;;;33.45;12.32;;;36.00;45.00;;;;;;5114570;28;20055;-55
2022/07/05 11:19:18;;;;;;;18.45;9.70;;;36.30;45.80;;;;;;5114799;28;20038;-55
2022/07/05 11:22:07;;;;;;;17.35;10.65;;;36.20;44.90;;;;;;5112675;28;20035;-55
2022/07/05 11:24:37;;;;;;;17.13;10.55;;;35.90;46.80;;;;;;5113178;28;20486;-55
2022/07/05 11:27:04;;;;;;;;;;;35.60;45.30;;;;;;5115414;28;20026;-55
2022/07/05 11:29:50;;;;;;;13.07;8.98;;;36.00;45.00;;;;;;5114428;28;19934;-55
2022/07/05 11:32:22;;;;;;;14.68;8.73;;;35.60;45.90;;;;;;5114629;28;20099;-55
2022/07/05 11:34:53;;;;;;;14.75;8.07;;;35.10;47.40;;;;;;5114518;28;20032;-55
2022/07/05 11:37:32;;;;;;;11.13;7.88;;;34.60;48.30;;;;;;5114680;28;20352;-55
2022/07/05 11:40:09;;;;;;;13.20;7.28;;;34.50;49.20;;;;;;5114725;28;20107;-55
2022/07/05 11:42:39;;;;;;;15.80;8.57;;;33.90;51.50;;;;;;5114792;28;20028;-55
2022/07/05 11:45:09;;;;;;;11.05;7.30;;;33.60;51.70;;;;;;5114499;28;20492;-55
2022/07/05 11:47:35;;;;;;;16.60;8.15;;;33.60;51.80;;;;;;5114327;28;20071;-55
2022/07/05 11:50:02;;;;;;;16.92;8.65;;;33.30;51.80;;;;;;5114353;28;20081;-55
2022/07/05 11:52:29;;;;;;;16.60;7.50;;;33.00;52.40;;;;;;5114581;28;20028;-55
2022/07/05 11:55:00;;;;;;;10.35;7.20;;;32.60;54.00;;;;;;5113036;28;20024;-55
2022/07/05 11:57:26;;;;;;;27.17;14.63;;;32.40;54.30;;;;;;5114000;28;20393;-55
2022/07/05 11:59:52;;;;;;;16.33;8.15;;;32.20;54.80;;;;;;5115041;28;20035;-55
2022/07/05 12:02:19;;;;;;;16.45;6.93;;;31.90;54.60;;;;;;5118207;28;20031;-55
2022/07/05 12:04:50;;;;;;;13.02;7.78;;;31.50;55.40;;;;;;5118456;28;20024;-55
2022/07/05 12:07:34;;;;;;;10.00;6.30;;;31.40;56.70;;;;;;5118360;28;20066;-55
2022/07/05 12:12:47;;;;;;;16.90;7.85;;;31.10;57.30;;;;;;5118311;28;20031;-55
2022/07/05 12:15:18;;;;;;;13.23;8.13;;;30.80;58.80;;;;;;5118203;28;20023;-55
2022/07/05 12:17:49;;;;;;;14.13;8.68;;;30.60;58.70;;;;;;5117902;28;20080;-55
2022/07/05 12:20:22;;;;;;;12.63;8.05;;;30.50;60.10;;;;;;5116778;28;20046;-55
2022/07/05 12:22:49;;;;;;;11.95;7.55;;;30.40;61.00;;;;;;5097758;28;20027;-55
2022/07/05 12:25:20;;;;;;;13.55;7.53;;;30.20;62.30;;;;;;5097374;28;20030;-54
2022/07/05 12:27:47;;;;;;;11.13;7.75;;;30.00;62.20;;;;;;5097538;28;20489;-54
2022/07/05 12:30:14;;;;;;;12.73;8.00;;;29.90;63.60;;;;;;5097777;28;20059;-54
2022/07/05 12:33:13;;;;;;;11.18;7.97;;;29.70;62.50;;;;;;5097807;28;20461;-54
2022/07/05 12:35:41;;;;;;;14.27;7.95;;;29.50;65.10;;;;;;5085181;28;20042;-55
2022/07/05 12:38:16;;;;;;;19.67;8.88;;;29.40;66.80;;;;;;5110008;28;20030;-55
2022/07/05 12:40:47;;;;;;;18.08;9.60;;;29.30;64.80;;;;;;5116618;28;20020;-54
2022/07/05 12:43:15;;;;;;;14.25;7.70;;;29.40;64.90;;;;;;5113983;28;20031;-54
2022/07/05 12:45:44;;;;;;;21.75;10.60;;;29.60;65.40;;;;;;5115301;28;20030;-55
2022/07/05 12:48:11;;;;;;;12.00;7.50;;;29.80;64.90;;;;;;5116688;28;20055;-54
2022/07/05 12:50:45;;;;;;;9.45;6.47;;;29.90;64.20;;;;;;5116575;28;20473;-55
2022/07/05 12:59:03;;;;;;;10.52;6.05;;;30.70;63.30;;;;;;5107344;28;20492;-55